Uwchland, Pennsylvania
Current Conditions -  °F | °C
As of 8:35 PM on Friday 21 Nov 2014 (Local Time) from KMQS Reporting Station
Clear Clear  
Wind Chill: 18°   Ceiling: Unl
Heat Index: 25°   Visibility: 10mi
Dew Point: 10°   Wind: 6mph
Humidity: 54%   Direction: 260°W
Pressure: 30.5"   Gusts: NA
Location:  40.07°N, 75.69°W
Report Text: KMQS 220135Z AUTO 26005KT 10SM CLR M04/M12 A3050 RMK AO2
Loading
Personal Weather Stations






























Interactive Weather Map New forecast layout! Learn more

10-Day Weather Forecast

Advertisements
Track Severe Weather on mobile